sensor_id;sensor_type;location;lat;lon;timestamp;pressure;altitude;pressure_sealevel;temperature;humidity
29909;BME280;36247;51.952;6.146;2023-02-19T00:00:52;101555.03;;;9.30;100.00
29909;BME280;36247;51.952;6.146;2023-02-19T00:03:17;101561.06;;;9.26;100.00
29909;BME280;36247;51.952;6.146;2023-02-19T00:05:43;101563.59;;;9.23;100.00
29909;BME280;36247;51.952;6.146;2023-02-19T00:08:08;101563.47;;;9.18;100.00
29909;BME280;36247;51.952;6.146;2023-02-19T00:10:33;101566.91;;;9.16;100.00
29909;BME280;36247;51.952;6.146;2023-02-19T00:12:59;101571.31;;;9.15;100.00
29909;BME280;36247;51.952;6.146;2023-02-19T00:15:24;101565.16;;;9.16;100.00
29909;BME280;36247;51.952;6.146;2023-02-19T00:17:49;101568.66;;;9.15;100.00
29909;BME280;36247;51.952;6.146;2023-02-19T00:20:15;101565.19;;;9.18;100.00
29909;BME280;36247;51.952;6.146;2023-02-19T00:22:40;101556.34;;;9.16;100.00
29909;BME280;36247;51.952;6.146;2023-02-19T00:25:06;101555.41;;;9.14;100.00
29909;BME280;36247;51.952;6.146;2023-02-19T00:27:31;101563.31;;;9.14;100.00
29909;BME280;36247;51.952;6.146;2023-02-19T00:29:57;101553.53;;;9.11;100.00
29909;BME280;36247;51.952;6.146;2023-02-19T00:32:22;101570.28;;;9.12;100.00
29909;BME280;36247;51.952;6.146;2023-02-19T00:34:48;101561.47;;;9.11;100.00
29909;BME280;36247;51.952;6.146;2023-02-19T00:37:13;101562.28;;;9.09;100.00
29909;BME280;36247;51.952;6.146;2023-02-19T00:39:38;101567.56;;;9.09;100.00
29909;BME280;36247;51.952;6.146;2023-02-19T00:42:04;101563.09;;;9.06;100.00
29909;BME280;36247;51.952;6.146;2023-02-19T00:44:29;101561.34;;;9.07;100.00
29909;BME280;36247;51.952;6.146;2023-02-19T00:46:55;101549.75;;;9.03;100.00
29909;BME280;36247;51.952;6.146;2023-02-19T00:49:21;101557.81;;;9.06;100.00
29909;BME280;36247;51.952;6.146;2023-02-19T00:51:48;101561.28;;;9.05;100.00
29909;BME280;36247;51.952;6.146;2023-02-19T00:54:15;101559.44;;;9.03;100.00
29909;BME280;36247;51.952;6.146;2023-02-19T00:56:41;101555.03;;;9.03;100.00
29909;BME280;36247;51.952;6.146;2023-02-19T00:59:06;101559.44;;;9.03;100.00
29909;BME280;36247;51.952;6.146;2023-02-19T01:01:32;101559.44;;;9.03;100.00
29909;BME280;36247;51.952;6.146;2023-02-19T01:03:57;101559.38;;;9.01;100.00
29909;BME280;36247;51.952;6.146;2023-02-19T01:06:23;101564.63;;;8.99;100.00
29909;BME280;36247;51.952;6.146;2023-02-19T01:08:48;101562.81;;;8.98;100.00
29909;BME280;36247;51.952;6.146;2023-02-19T01:11:15;101566.28;;;8.96;100.00
29909;BME280;36247;51.952;6.146;2023-02-19T01:13:41;101561.84;;;8.95;100.00
29909;BME280;36247;51.952;6.146;2023-02-19T01:16:19;101569.63;;;8.90;100.00
29909;BME280;36247;51.952;6.146;2023-02-19T01:18:46;101570.47;;;8.89;100.00
29909;BME280;36247;51.952;6.146;2023-02-19T01:21:14;101562.53;;;8.89;100.00
29909;BME280;36247;51.952;6.146;2023-02-19T01:23:41;101568.59;;;8.87;100.00
29909;BME280;36247;51.952;6.146;2023-02-19T01:26:09;101569.53;;;8.87;100.00
29909;BME280;36247;51.952;6.146;2023-02-19T01:28:35;101577.41;;;8.86;100.00
29909;BME280;36247;51.952;6.146;2023-02-19T01:31:02;101585.28;;;8.84;100.00
29909;BME280;36247;51.952;6.146;2023-02-19T01:33:28;101587.97;;;8.86;100.00
29909;BME280;36247;51.952;6.146;2023-02-19T01:35:53;101583.78;;;8.92;100.00
29909;BME280;36247;51.952;6.146;2023-02-19T01:38:19;101577.56;;;8.90;100.00
29909;BME280;36247;51.952;6.146;2023-02-19T01:40:44;101589.94;;;8.91;100.00
29909;BME280;36247;51.952;6.146;2023-02-19T01:43:19;101589.88;;;8.90;100.00
29909;BME280;36247;51.952;6.146;2023-02-19T01:45:45;101580.97;;;8.88;100.00
29909;BME280;36247;51.952;6.146;2023-02-19T01:50:44;101583.63;;;8.88;100.00
29909;BME280;36247;51.952;6.146;2023-02-19T01:53:12;101574.81;;;8.87;100.00
29909;BME280;36247;51.952;6.146;2023-02-19T01:55:39;101580.09;;;8.87;100.00
29909;BME280;36247;51.952;6.146;2023-02-19T01:58:05;101576.59;;;8.88;100.00
29909;BME280;36247;51.952;6.146;2023-02-19T02:00:36;101580.09;;;8.87;100.00
29909;BME280;36247;51.952;6.146;2023-02-19T02:03:01;101573.06;;;8.88;100.00
29909;BME280;36247;51.952;6.146;2023-02-19T02:05:37;101584.47;;;8.87;100.00
29909;BME280;36247;51.952;6.146;2023-02-19T02:08:04;101583.63;;;8.88;100.00
29909;BME280;36247;51.952;6.146;2023-02-19T02:10:49;101587.09;;;8.87;100.00
29909;BME280;36247;51.952;6.146;2023-02-19T02:13:15;101587.16;;;8.88;100.00
29909;BME280;36247;51.952;6.146;2023-02-19T02:16:01;101591.50;;;8.86;100.00
29909;BME280;36247;51.952;6.146;2023-02-19T02:18:51;101595.94;;;8.87;100.00
29909;BME280;36247;51.952;6.146;2023-02-19T02:24:11;101594.09;;;8.85;100.00
29909;BME280;36247;51.952;6.146;2023-02-19T02:27:05;101589.50;;;8.79;100.00
29909;BME280;36247;51.952;6.146;2023-02-19T02:32:29;101595.66;;;8.78;100.00
29909;BME280;36247;51.952;6.146;2023-02-19T02:35:05;101596.53;;;8.78;100.00
29909;BME280;36247;51.952;6.146;2023-02-19T02:37:34;101596.50;;;8.77;100.00
29909;BME280;36247;51.952;6.146;2023-02-19T02:40:03;101586.72;;;8.74;100.00
29909;BME280;36247;51.952;6.146;2023-02-19T02:42:32;101591.88;;;8.71;100.00
29909;BME280;36247;51.952;6.146;2023-02-19T02:45:23;101589.16;;;8.68;100.00
29909;BME280;36247;51.952;6.146;2023-02-19T02:51:09;101601.31;;;8.63;100.00
29909;BME280;36247;51.952;6.146;2023-02-19T02:54:40;101601.31;;;8.63;100.00
29909;BME280;36247;51.952;6.146;2023-02-19T02:57:20;101601.28;;;8.61;100.00
29909;BME280;36247;51.952;6.146;2023-02-19T02:59:50;101609.09;;;8.58;100.00
29909;BME280;36247;51.952;6.146;2023-02-19T03:02:22;101607.34;;;8.59;100.00
29909;BME280;36247;51.952;6.146;2023-02-19T03:04:58;101608.22;;;8.59;100.00
29909;BME280;36247;51.952;6.146;2023-02-19T03:07:52;101603.84;;;8.60;100.00
29909;BME280;36247;51.952;6.146;2023-02-19T03:10:49;101611.78;;;8.60;100.00
29909;BME280;36247;51.952;6.146;2023-02-19T03:13:18;101610.97;;;8.62;100.00
29909;BME280;36247;51.952;6.146;2023-02-19T03:16:30;101617.13;;;8.61;100.00
29909;BME280;36247;51.952;6.146;2023-02-19T03:19:18;101625.03;;;8.61;100.00
29909;BME280;36247;51.952;6.146;2023-02-19T03:21:56;101618.06;;;8.63;100.00
29909;BME280;36247;51.952;6.146;2023-02-19T03:24:35;101628.63;;;8.63;100.00
29909;BME280;36247;51.952;6.146;2023-02-19T03:27:24;101623.34;;;8.63;100.00
29909;BME280;36247;51.952;6.146;2023-02-19T03:29:55;101637.38;;;8.62;100.00
29909;BME280;36247;51.952;6.146;2023-02-19T03:32:28;101636.50;;;8.62;100.00
29909;BME280;36247;51.952;6.146;2023-02-19T03:34:59;101637.38;;;8.62;100.00
29909;BME280;36247;51.952;6.146;2023-02-19T03:37:30;101635.59;;;8.61;100.00
29909;BME280;36247;51.952;6.146;2023-02-19T03:39:59;101637.38;;;8.62;100.00
29909;BME280;36247;51.952;6.146;2023-02-19T03:42:40;101641.66;;;8.59;100.00
29909;BME280;36247;51.952;6.146;2023-02-19T03:45:18;101639.88;;;8.58;100.00
29909;BME280;36247;51.952;6.146;2023-02-19T03:47:53;101649.59;;;8.59;100.00
29909;BME280;36247;51.952;6.146;2023-02-19T03:50:43;101637.22;;;8.58;100.00
29909;BME280;36247;51.952;6.146;2023-02-19T03:53:37;101649.53;;;8.57;100.00
29909;BME280;36247;51.952;6.146;2023-02-19T04:01:16;101656.72;;;8.61;100.00
29909;BME280;36247;51.952;6.146;2023-02-19T04:03:58;101654.03;;;8.60;100.00
29909;BME280;36247;51.952;6.146;2023-02-19T04:06:28;101655.91;;;8.64;100.00
29909;BME280;36247;51.952;6.146;2023-02-19T04:08:58;101672.69;;;8.64;100.00
29909;BME280;36247;51.952;6.146;2023-02-19T04:11:26;101666.53;;;8.65;100.00
29909;BME280;36247;51.952;6.146;2023-02-19T04:14:06;101665.59;;;8.63;100.00
29909;BME280;36247;51.952;6.146;2023-02-19T04:16:37;101673.53;;;8.63;100.00
29909;BME280;36247;51.952;6.146;2023-02-19T04:19:09;101676.16;;;8.63;100.00
29909;BME280;36247;51.952;6.146;2023-02-19T04:21:35;101687.56;;;8.62;100.00
29909;BME280;36247;51.952;6.146;2023-02-19T04:24:06;101683.16;;;8.61;100.00
29909;BME280;36247;51.952;6.146;2023-02-19T04:26:34;101684.91;;;8.62;100.00
29909;BME280;36247;51.952;6.146;2023-02-19T04:29:00;101690.22;;;8.62;100.00
29909;BME280;36247;51.952;6.146;2023-02-19T04:31:26;101686.63;;;8.60;100.00
29909;BME280;36247;51.952;6.146;2023-02-19T04:33:54;101687.47;;;8.59;100.00
29909;BME280;36247;51.952;6.146;2023-02-19T04:36:19;101686.63;;;8.60;100.00
29909;BME280;36247;51.952;6.146;2023-02-19T04:38:45;101690.22;;;8.62;100.00
29909;BME280;36247;51.952;6.146;2023-02-19T04:41:10;101690.53;;;8.72;100.00
29909;BME280;36247;51.952;6.146;2023-02-19T04:43:35;101681.75;;;8.73;100.00
29909;BME280;36247;51.952;6.146;2023-02-19T04:46:01;101706.47;;;8.73;100.00
29909;BME280;36247;51.952;6.146;2023-02-19T04:48:27;101704.59;;;8.71;100.00
29909;BME280;36247;51.952;6.146;2023-02-19T04:50:53;101707.19;;;8.69;100.00
29909;BME280;36247;51.952;6.146;2023-02-19T04:53:18;101717.81;;;8.71;100.00
29909;BME280;36247;51.952;6.146;2023-02-19T04:55:44;101723.94;;;8.70;100.00
29909;BME280;36247;51.952;6.146;2023-02-19T04:58:09;101724.75;;;8.69;100.00
29909;BME280;36247;51.952;6.146;2023-02-19T05:00:35;101724.66;;;8.65;100.00
29909;BME280;36247;51.952;6.146;2023-02-19T05:03:00;101726.28;;;8.62;100.00
29909;BME280;36247;51.952;6.146;2023-02-19T05:05:26;101733.38;;;8.63;100.00
29909;BME280;36247;51.952;6.146;2023-02-19T05:07:52;101733.44;;;8.64;100.00
29909;BME280;36247;51.952;6.146;2023-02-19T05:10:17;101749.34;;;8.66;100.00
29909;BME280;36247;51.952;6.146;2023-02-19T05:12:43;101752.03;;;8.68;100.00
29909;BME280;36247;51.952;6.146;2023-02-19T05:15:08;101761.69;;;8.67;100.00
29909;BME280;36247;51.952;6.146;2023-02-19T05:17:33;101751.94;;;8.64;100.00
29909;BME280;36247;51.952;6.146;2023-02-19T05:19:59;101751.06;;;8.65;100.00
29909;BME280;36247;51.952;6.146;2023-02-19T05:22:24;101756.34;;;8.65;100.00
29909;BME280;36247;51.952;6.146;2023-02-19T05:24:50;101759.81;;;8.63;100.00
29909;BME280;36247;51.952;6.146;2023-02-19T05:27:15;101771.25;;;8.63;100.00
29909;BME280;36247;51.952;6.146;2023-02-19T05:29:41;101764.16;;;8.62;100.00
29909;BME280;36247;51.952;6.146;2023-02-19T05:32:06;101772.97;;;8.61;100.00
29909;BME280;36247;51.952;6.146;2023-02-19T05:34:31;101766.75;;;8.61;100.00
29909;BME280;36247;51.952;6.146;2023-02-19T05:36:57;101772.91;;;8.60;100.00
29909;BME280;36247;51.952;6.146;2023-02-19T05:39:22;101772.91;;;8.60;100.00
29909;BME280;36247;51.952;6.146;2023-02-19T05:41:48;101771.03;;;8.57;100.00
29909;BME280;36247;51.952;6.146;2023-02-19T05:44:13;101775.53;;;8.60;100.00
29909;BME280;36247;51.952;6.146;2023-02-19T05:46:38;101773.84;;;8.62;100.00
29909;BME280;36247;51.952;6.146;2023-02-19T05:49:04;101780.69;;;8.57;100.00
29909;BME280;36247;51.952;6.146;2023-02-19T05:51:29;101774.56;;;8.58;100.00
29909;BME280;36247;51.952;6.146;2023-02-19T05:53:55;101774.63;;;8.59;100.00
29909;BME280;36247;51.952;6.146;2023-02-19T05:56:36;101776.31;;;8.57;100.00
29909;BME280;36247;51.952;6.146;2023-02-19T06:01:33;101784.13;;;8.54;100.00
29909;BME280;36247;51.952;6.146;2023-02-19T06:03:58;101786.78;;;8.54;100.00
29909;BME280;36247;51.952;6.146;2023-02-19T06:06:25;101790.25;;;8.53;100.00
29909;BME280;36247;51.952;6.146;2023-02-19T06:08:51;101798.13;;;8.52;100.00
29909;BME280;36247;51.952;6.146;2023-02-19T06:11:18;101800.53;;;8.45;100.00
29909;BME280;36247;51.952;6.146;2023-02-19T06:13:44;101813.59;;;8.42;100.00
29909;BME280;36247;51.952;6.146;2023-02-19T06:16:11;101806.56;;;8.43;100.00
29909;BME280;36247;51.952;6.146;2023-02-19T06:18:37;101817.06;;;8.41;100.00
29909;BME280;36247;51.952;6.146;2023-02-19T06:21:06;101810.88;;;8.41;100.00
29909;BME280;36247;51.952;6.146;2023-02-19T06:23:32;101815.31;;;8.42;100.00
29909;BME280;36247;51.952;6.146;2023-02-19T06:28:38;101826.72;;;8.41;100.00
29909;BME280;36247;51.952;6.146;2023-02-19T06:31:05;101829.31;;;8.39;100.00
29909;BME280;36247;51.952;6.146;2023-02-19T06:33:31;101835.41;;;8.38;100.00
29909;BME280;36247;51.952;6.146;2023-02-19T06:35:58;101849.50;;;8.39;100.00
29909;BME280;36247;51.952;6.146;2023-02-19T06:38:24;101844.13;;;8.36;100.00
29909;BME280;36247;51.952;6.146;2023-02-19T06:40:49;101853.00;;;8.38;100.00
29909;BME280;36247;51.952;6.146;2023-02-19T06:43:15;101849.41;;;8.36;100.00
29909;BME280;36247;51.952;6.146;2023-02-19T06:45:40;101859.06;;;8.35;100.00
29909;BME280;36247;51.952;6.146;2023-02-19T06:48:05;101863.47;;;8.35;100.00
29909;BME280;36247;51.952;6.146;2023-02-19T06:50:31;101867.88;;;8.36;100.00
29909;BME280;36247;51.952;6.146;2023-02-19T06:52:56;101859.19;;;8.38;100.00
29909;BME280;36247;51.952;6.146;2023-02-19T06:55:22;101868.84;;;8.38;100.00
29909;BME280;36247;51.952;6.146;2023-02-19T06:57:47;101863.63;;;8.39;100.00
29909;BME280;36247;51.952;6.146;2023-02-19T07:00:13;101872.44;;;8.40;100.00
29909;BME280;36247;51.952;6.146;2023-02-19T07:02:38;101874.25;;;8.41;100.00
29909;BME280;36247;51.952;6.146;2023-02-19T07:05:04;101875.91;;;8.39;100.00
29909;BME280;36247;51.952;6.146;2023-02-19T07:07:32;101873.41;;;8.42;100.00
29909;BME280;36247;51.952;6.146;2023-02-19T07:09:57;101877.72;;;8.40;100.00
29909;BME280;36247;51.952;6.146;2023-02-19T07:12:23;101890.81;;;8.37;100.00
29909;BME280;36247;51.952;6.146;2023-02-19T07:14:49;101889.00;;;8.36;100.00
29909;BME280;36247;51.952;6.146;2023-02-19T07:17:14;101893.44;;;8.37;100.00
29909;BME280;36247;51.952;6.146;2023-02-19T07:19:41;101901.31;;;8.35;100.00
29909;BME280;36247;51.952;6.146;2023-02-19T07:22:06;101904.00;;;8.37;100.00
29909;BME280;36247;51.952;6.146;2023-02-19T07:24:32;101907.59;;;8.39;100.00
29909;BME280;36247;51.952;6.146;2023-02-19T07:26:57;101914.69;;;8.40;100.00
29909;BME280;36247;51.952;6.146;2023-02-19T07:29:23;101915.53;;;8.39;100.00
29909;BME280;36247;51.952;6.146;2023-02-19T07:31:48;101917.34;;;8.40;100.00
29909;BME280;36247;51.952;6.146;2023-02-19T07:34:13;101918.22;;;8.40;100.00
29909;BME280;36247;51.952;6.146;2023-02-19T07:36:39;101922.63;;;8.40;100.00
29909;BME280;36247;51.952;6.146;2023-02-19T07:39:04;101938.53;;;8.41;100.00
29909;BME280;36247;51.952;6.146;2023-02-19T07:41:30;101942.00;;;8.40;100.00
29909;BME280;36247;51.952;6.146;2023-02-19T07:43:57;101942.91;;;8.41;100.00
29909;BME280;36247;51.952;6.146;2023-02-19T07:46:22;101942.66;;;8.35;100.00
29909;BME280;36247;51.952;6.146;2023-02-19T07:48:48;101942.78;;;8.38;100.00
29909;BME280;36247;51.952;6.146;2023-02-19T07:51:16;101955.88;;;8.35;100.00
29909;BME280;36247;51.952;6.146;2023-02-19T07:53:47;101960.28;;;8.36;100.00
29909;BME280;36247;51.952;6.146;2023-02-19T07:56:14;101962.88;;;8.34;100.00
29909;BME280;36247;51.952;6.146;2023-02-19T07:58:40;101965.56;;;8.36;100.00
29909;BME280;36247;51.952;6.146;2023-02-19T08:01:20;101960.28;;;8.36;100.00
29909;BME280;36247;51.952;6.146;2023-02-19T08:04:04;101967.06;;;8.29;100.00
29909;BME280;36247;51.952;6.146;2023-02-19T08:06:29;101967.19;;;8.32;100.00
29909;BME280;36247;51.952;6.146;2023-02-19T08:08:55;101963.66;;;8.32;100.00
29909;BME280;36247;51.952;6.146;2023-02-19T08:11:22;101967.31;;;8.35;100.00
29909;BME280;36247;51.952;6.146;2023-02-19T08:14:06;101967.25;;;8.34;100.00
29909;BME280;36247;51.952;6.146;2023-02-19T08:16:31;101968.28;;;8.37;100.00
29909;BME280;36247;51.952;6.146;2023-02-19T08:18:57;101971.09;;;8.42;100.00
29909;BME280;36247;51.952;6.146;2023-02-19T08:21:22;101981.06;;;8.47;100.00
29909;BME280;36247;51.952;6.146;2023-02-19T08:23:48;101980.28;;;8.50;100.00
29909;BME280;36247;51.952;6.146;2023-02-19T08:26:14;101992.66;;;8.51;100.00
29909;BME280;36247;51.952;6.146;2023-02-19T08:28:40;101991.81;;;8.52;100.00
29909;BME280;36247;51.952;6.146;2023-02-19T08:31:07;102003.59;;;8.60;100.00
29909;BME280;36247;51.952;6.146;2023-02-19T08:33:33;101993.75;;;8.56;100.00
29909;BME280;36247;51.952;6.146;2023-02-19T08:36:04;101989.50;;;8.60;100.00
29909;BME280;36247;51.952;6.146;2023-02-19T08:38:34;101997.56;;;8.63;100.00
29909;BME280;36247;51.952;6.146;2023-02-19T08:41:04;102002.88;;;8.64;100.00
29909;BME280;36247;51.952;6.146;2023-02-19T08:43:30;102009.94;;;8.65;100.00
29909;BME280;36247;51.952;6.146;2023-02-19T08:45:55;102018.88;;;8.68;100.00
29909;BME280;36247;51.952;6.146;2023-02-19T08:48:21;102016.59;;;8.77;100.00
29909;BME280;36247;51.952;6.146;2023-02-19T08:50:55;102017.53;;;8.79;100.00
29909;BME280;36247;51.952;6.146;2023-02-19T08:53:21;102029.31;;;8.87;100.00
29909;BME280;36247;51.952;6.146;2023-02-19T08:55:47;102033.84;;;8.90;100.00
29909;BME280;36247;51.952;6.146;2023-02-19T08:58:12;102038.97;;;8.87;100.00
29909;BME280;36247;51.952;6.146;2023-02-19T09:00:38;102049.53;;;8.87;100.00
29909;BME280;36247;51.952;6.146;2023-02-19T09:03:03;102032.22;;;8.93;100.00
29909;BME280;36247;51.952;6.146;2023-02-19T09:05:29;102037.63;;;8.96;100.00
29909;BME280;36247;51.952;6.146;2023-02-19T09:07:54;102025.34;;;8.98;100.00
29909;BME280;36247;51.952;6.146;2023-02-19T09:10:20;102023.56;;;8.97;100.00
29909;BME280;36247;51.952;6.146;2023-02-19T09:12:45;102026.50;;;9.05;100.00
29909;BME280;36247;51.952;6.146;2023-02-19T09:15:11;102025.75;;;9.08;100.00
29909;BME280;36247;51.952;6.146;2023-02-19T09:17:36;102023.88;;;9.05;100.00
29909;BME280;36247;51.952;6.146;2023-02-19T09:20:02;102039.50;;;8.99;100.00
29909;BME280;36247;51.952;6.146;2023-02-19T09:22:28;102038.44;;;8.95;100.00
29909;BME280;36247;51.952;6.146;2023-02-19T09:24:53;102038.91;;;8.85;100.00
29909;BME280;36247;51.952;6.146;2023-02-19T09:27:19;102054.47;;;8.77;100.00
29909;BME280;36247;51.952;6.146;2023-02-19T09:29:45;102064.03;;;8.74;100.00
29909;BME280;36247;51.952;6.146;2023-02-19T09:32:12;102068.31;;;8.72;100.00
29909;BME280;36247;51.952;6.146;2023-02-19T09:34:38;102073.88;;;8.78;100.00
29909;BME280;36247;51.952;6.146;2023-02-19T09:37:04;102081.75;;;8.76;100.00
29909;BME280;36247;51.952;6.146;2023-02-19T09:39:30;102075.53;;;8.76;100.00
29909;BME280;36247;51.952;6.146;2023-02-19T09:42:17;102087.03;;;8.76;100.00
29909;BME280;36247;51.952;6.146;2023-02-19T09:44:47;102077.22;;;8.74;100.00
29909;BME280;36247;51.952;6.146;2023-02-19T09:47:18;102097.53;;;8.75;100.00
29909;BME280;36247;51.952;6.146;2023-02-19T09:49:46;102121.31;;;8.75;100.00
29909;BME280;36247;51.952;6.146;2023-02-19T09:52:35;102127.31;;;8.71;100.00
29909;BME280;36247;51.952;6.146;2023-02-19T09:55:13;102128.84;;;8.65;100.00
29909;BME280;36247;51.952;6.146;2023-02-19T09:57:39;102138.56;;;8.67;100.00
29909;BME280;36247;51.952;6.146;2023-02-19T10:00:27;102139.81;;;8.75;100.00
29909;BME280;36247;51.952;6.146;2023-02-19T10:03:00;102138.13;;;8.77;100.00
29909;BME280;36247;51.952;6.146;2023-02-19T10:05:28;102149.53;;;8.76;100.00
29909;BME280;36247;51.952;6.146;2023-02-19T10:07:54;102152.03;;;8.73;100.00
29909;BME280;36247;51.952;6.146;2023-02-19T10:10:28;102155.28;;;9.08;100.00
29909;BME280;36247;51.952;6.146;2023-02-19T10:13:01;102168.00;;;9.39;100.00
29909;BME280;36247;51.952;6.146;2023-02-19T10:15:43;102160.34;;;9.47;100.00
29909;BME280;36247;51.952;6.146;2023-02-19T10:18:10;102152.88;;;9.82;100.00
29909;BME280;36247;51.952;6.146;2023-02-19T10:20:36;102149.00;;;10.45;100.00
29909;BME280;36247;51.952;6.146;2023-02-19T10:23:04;102155.44;;;10.77;100.00
29909;BME280;36247;51.952;6.146;2023-02-19T10:25:32;102150.03;;;10.24;100.00
29909;BME280;36247;51.952;6.146;2023-02-19T10:27:58;102155.13;;;9.71;100.00
29909;BME280;36247;51.952;6.146;2023-02-19T10:30:28;102167.69;;;9.54;100.00
29909;BME280;36247;51.952;6.146;2023-02-19T10:33:11;102173.72;;;9.50;100.00
29909;BME280;36247;51.952;6.146;2023-02-19T10:35:59;102186.22;;;9.33;100.00
29909;BME280;36247;51.952;6.146;2023-02-19T10:38:38;102204.06;;;9.16;100.00
29909;BME280;36247;51.952;6.146;2023-02-19T10:41:06;102205.38;;;9.05;100.00
29909;BME280;36247;51.952;6.146;2023-02-19T10:43:37;102204.44;;;9.04;100.00
29909;BME280;36247;51.952;6.146;2023-02-19T10:46:13;102201.94;;;8.86;100.00
29909;BME280;36247;51.952;6.146;2023-02-19T10:49:05;102221.25;;;8.85;100.00
29909;BME280;36247;51.952;6.146;2023-02-19T10:51:39;102221.16;;;8.62;100.00
29909;BME280;36247;51.952;6.146;2023-02-19T10:54:18;102211.41;;;8.42;100.00
29909;BME280;36247;51.952;6.146;2023-02-19T10:56:44;102226.03;;;8.34;100.00
29909;BME280;36247;51.952;6.146;2023-02-19T10:59:24;102231.88;;;8.26;100.00
29909;BME280;36247;51.952;6.146;2023-02-19T11:02:01;102234.38;;;8.23;100.00
29909;BME280;36247;51.952;6.146;2023-02-19T11:04:31;102231.03;;;8.27;100.00
29909;BME280;36247;51.952;6.146;2023-02-19T11:07:10;102234.72;;;8.31;100.00
29909;BME280;36247;51.952;6.146;2023-02-19T11:09:40;102230.56;;;8.36;100.00
29909;BME280;36247;51.952;6.146;2023-02-19T11:12:07;102219.94;;;8.35;100.00
29909;BME280;36247;51.952;6.146;2023-02-19T11:14:34;102215.41;;;8.32;100.00
29909;BME280;36247;51.952;6.146;2023-02-19T11:17:03;102208.09;;;8.26;100.00
29909;BME280;36247;51.952;6.146;2023-02-19T11:24:54;102208.50;;;8.36;100.00
29909;BME280;36247;51.952;6.146;2023-02-19T11:27:22;102208.84;;;8.24;100.00
29909;BME280;36247;51.952;6.146;2023-02-19T11:29:48;102216.28;;;8.33;100.00
29909;BME280;36247;51.952;6.146;2023-02-19T11:34:46;102217.00;;;8.28;100.00
29909;BME280;36247;51.952;6.146;2023-02-19T11:37:16;102214.91;;;8.21;100.00
29909;BME280;36247;51.952;6.146;2023-02-19T11:39:49;102220.34;;;8.24;100.00
29909;BME280;36247;51.952;6.146;2023-02-19T11:42:26;102227.28;;;8.22;100.00
29909;BME280;36247;51.952;6.146;2023-02-19T11:45:06;102227.41;;;8.25;100.00
29909;BME280;36247;51.952;6.146;2023-02-19T11:53:24;102252.91;;;8.25;100.00
29909;BME280;36247;51.952;6.146;2023-02-19T12:02:06;102245.00;;;8.25;100.00
29909;BME280;36247;51.952;6.146;2023-02-19T12:15:39;102254.69;;;8.44;100.00
29909;BME280;36247;51.952;6.146;2023-02-19T12:23:29;102239.09;;;8.30;100.00
29909;BME280;36247;51.952;6.146;2023-02-19T12:26:36;102240.88;;;8.50;100.00
29909;BME280;36247;51.952;6.146;2023-02-19T12:32:28;102242.16;;;8.40;100.00
29909;BME280;36247;51.952;6.146;2023-02-19T12:37:35;102237.81;;;8.22;100.00
29909;BME280;36247;51.952;6.146;2023-02-19T12:45:25;102240.53;;;8.24;100.00
29909;BME280;36247;51.952;6.146;2023-02-19T12:48:13;102240.47;;;8.22;100.00
29909;BME280;36247;51.952;6.146;2023-02-19T12:50:44;102239.66;;;8.23;100.00
29909;BME280;36247;51.952;6.146;2023-02-19T12:53:32;102254.88;;;8.29;100.00
29909;BME280;36247;51.952;6.146;2023-02-19T12:56:04;102250.34;;;8.26;100.00
29909;BME280;36247;51.952;6.146;2023-02-19T12:58:47;102258.41;;;8.29;100.00
29909;BME280;36247;51.952;6.146;2023-02-19T13:01:19;102257.72;;;8.34;100.00
29909;BME280;36247;51.952;6.146;2023-02-19T13:06:49;102267.38;;;8.14;100.00
29909;BME280;36247;51.952;6.146;2023-02-19T13:09:33;102258.66;;;8.16;100.00
29909;BME280;36247;51.952;6.146;2023-02-19T13:12:08;102264.22;;;8.22;100.00
29909;BME280;36247;51.952;6.146;2023-02-19T13:14:57;102287.91;;;8.21;100.00
29909;BME280;36247;51.952;6.146;2023-02-19T13:20:23;102291.19;;;8.15;100.00
29909;BME280;36247;51.952;6.146;2023-02-19T13:28:50;102300.41;;;8.05;100.00
29909;BME280;36247;51.952;6.146;2023-02-19T13:34:26;102307.97;;;7.98;100.00
29909;BME280;36247;51.952;6.146;2023-02-19T13:36:55;102309.53;;;7.94;100.00
29909;BME280;36247;51.952;6.146;2023-02-19T13:39:21;102315.72;;;7.94;100.00
29909;BME280;36247;51.952;6.146;2023-02-19T13:41:52;102325.63;;;7.99;100.00
29909;BME280;36247;51.952;6.146;2023-02-19T13:44:20;102324.63;;;7.97;100.00
29909;BME280;36247;51.952;6.146;2023-02-19T13:46:47;102333.53;;;7.99;100.00
29909;BME280;36247;51.952;6.146;2023-02-19T13:54:23;102325.38;;;7.94;100.00
29909;BME280;36247;51.952;6.146;2023-02-19T13:59:51;102340.31;;;7.93;100.00
29909;BME280;36247;51.952;6.146;2023-02-19T14:04:52;102329.38;;;7.86;100.00
29909;BME280;36247;51.952;6.146;2023-02-19T14:09:52;102339.41;;;7.93;100.00
29909;BME280;36247;51.952;6.146;2023-02-19T14:12:20;102340.31;;;7.75;100.00
29909;BME280;36247;51.952;6.146;2023-02-19T14:14:49;102348.16;;;7.74;100.00
29909;BME280;36247;51.952;6.146;2023-02-19T14:20:00;102346.53;;;7.59;100.00
29909;BME280;36247;51.952;6.146;2023-02-19T14:25:41;102354.75;;;7.66;100.00
29909;BME280;36247;51.952;6.146;2023-02-19T14:28:13;102358.47;;;7.69;100.00
29909;BME280;36247;51.952;6.146;2023-02-19T14:33:09;102365.00;;;7.59;100.00
29909;BME280;36247;51.952;6.146;2023-02-19T14:35:42;102358.84;;;7.59;100.00
29909;BME280;36247;51.952;6.146;2023-02-19T14:38:24;102358.59;;;7.54;100.00
29909;BME280;36247;51.952;6.146;2023-02-19T14:40:53;102346.91;;;7.49;100.00
29909;BME280;36247;51.952;6.146;2023-02-19T14:43:21;102350.75;;;7.38;100.00
29909;BME280;36247;51.952;6.146;2023-02-19T14:45:59;102338.38;;;7.37;100.00
29909;BME280;36247;51.952;6.146;2023-02-19T14:48:31;102327.03;;;7.38;100.00
29909;BME280;36247;51.952;6.146;2023-02-19T14:51:03;102332.94;;;7.34;100.00